Terminal Aerodrome Forecast
Issued by NWS Dallas/Fort Worth, TX

Home | Current Version | Previous Version | Text Only | Print | Product List | Glossary On
Versions: 1 2 3 4 5 6 7 8 9 10 11 12 13 14 15 16 17 18 19 20 21 22 23 24 25 26 27 28 29 30 31 32 33
208
FTUS44 KFWD 280640 AAA
TAFACT
TAF AMD
KACT 280640Z 2807/0106 18012KT 6SM BR BKN012 OVC025
     FM280900 18012KT 3SM BR OVC007
     FM281200 17010KT 2SM BR OVC003
     FM281600 18012KT 4SM BR OVC006
     FM281800 20015KT P6SM OVC015
     FM282100 21018KT P6SM SCT015 BKN040
     FM010100 18013KT P6SM OVC250=

USA.gov is the U.S. government's official web portal to all federal, state and local government web resources and services.